createdAt,value
2023-03-25T00:01:15.071Z,67.83
2023-03-25T00:03:44.975Z,67.89
2023-03-25T00:06:13.877Z,67.96
2023-03-25T00:08:41.528Z,68.22
2023-03-25T00:11:09.094Z,68.13
2023-03-25T00:13:36.794Z,68.38
2023-03-25T00:16:06.638Z,68.80
2023-03-25T00:18:34.936Z,69.04
2023-03-25T00:21:12.631Z,69.73
2023-03-25T00:23:41.130Z,69.81
2023-03-25T00:26:29.613Z,69.77
2023-03-25T00:29:00.545Z,69.94
2023-03-25T00:31:28.312Z,69.90
2023-03-25T00:33:57.606Z,69.92
2023-03-25T00:36:25.472Z,69.64
2023-03-25T00:38:53.141Z,69.53
2023-03-25T00:41:26.585Z,69.44
2023-03-25T00:44:00.169Z,69.65
2023-03-25T00:46:32.317Z,69.86
2023-03-25T00:49:01.031Z,69.88
2023-03-25T00:51:33.540Z,69.67
2023-03-25T00:54:01.657Z,70.06
2023-03-25T00:56:30.891Z,70.06
2023-03-25T00:58:58.673Z,69.95
2023-03-25T01:01:28.912Z,69.97
2023-03-25T01:03:59.729Z,69.91
2023-03-25T01:06:35.182Z,69.85
2023-03-25T01:09:06.213Z,69.86
2023-03-25T01:11:37.182Z,69.69
2023-03-25T01:14:09.466Z,69.80
2023-03-25T01:16:37.977Z,69.83
2023-03-25T01:19:05.830Z,69.80
2023-03-25T01:21:35.310Z,69.80
2023-03-25T01:24:07.832Z,69.80
2023-03-25T01:26:36.214Z,69.80
2023-03-25T01:29:05.768Z,69.92
2023-03-25T01:31:34.099Z,70.08
2023-03-25T01:34:01.750Z,70.19
2023-03-25T01:36:29.867Z,70.44
2023-03-25T01:38:59.255Z,70.50
2023-03-25T01:41:39.089Z,70.31
2023-03-25T01:44:10.051Z,70.37
2023-03-25T01:46:45.006Z,70.28
2023-03-25T01:49:17.535Z,70.37
2023-03-25T01:51:45.850Z,70.63
2023-03-25T01:54:16.926Z,70.96
2023-03-25T01:56:47.143Z,71.11
2023-03-25T01:59:18.443Z,71.12
2023-03-25T02:01:47.028Z,71.39
2023-03-25T02:04:21.312Z,71.28
2023-03-25T02:06:53.217Z,71.06
2023-03-25T02:09:24.476Z,71.18
2023-03-25T02:11:54.037Z,70.99
2023-03-25T02:14:27.107Z,70.83
2023-03-25T02:17:12.285Z,70.84
2023-03-25T02:20:05.726Z,70.81
2023-03-25T02:23:09.141Z,70.68
2023-03-25T02:26:18.922Z,70.84
2023-03-25T02:29:03.130Z,71.13
2023-03-25T02:31:58.378Z,71.20
2023-03-25T02:34:43.633Z,71.13
2023-03-25T02:37:41.062Z,71.15
2023-03-25T02:40:14.426Z,70.87
2023-03-25T02:43:05.299Z,70.79
2023-03-25T02:45:39.196Z,70.84
2023-03-25T02:48:18.163Z,70.95
2023-03-25T02:50:53.422Z,71.04
2023-03-25T02:53:29.783Z,70.97
2023-03-25T02:56:10.387Z,71.09
2023-03-25T02:58:41.350Z,71.39
2023-03-25T03:01:09.781Z,71.65
2023-03-25T03:03:37.459Z,71.64
2023-03-25T03:06:07.112Z,71.40
2023-03-25T03:09:13.752Z,71.66
2023-03-25T03:12:16.805Z,71.63
2023-03-25T03:15:18.816Z,71.70
2023-03-25T03:18:07.463Z,71.86
2023-03-25T03:21:00.692Z,71.91
2023-03-25T03:23:33.346Z,71.69
2023-03-25T03:26:12.086Z,71.43
2023-03-25T03:28:57.265Z,71.46
2023-03-25T03:31:48.474Z,71.61
2023-03-25T03:34:24.023Z,71.60
2023-03-25T03:36:54.927Z,71.48
2023-03-25T03:39:39.189Z,71.47
2023-03-25T03:42:18.492Z,71.49
2023-03-25T03:44:53.494Z,71.50
2023-03-25T03:47:25.707Z,71.75
2023-03-25T03:49:58.954Z,71.78
2023-03-25T03:52:44.738Z,71.81
2023-03-25T03:55:18.794Z,71.77
2023-03-25T03:57:52.018Z,71.88
2023-03-25T04:00:27.006Z,71.56
2023-03-25T04:03:22.229Z,71.45
2023-03-25T04:06:06.381Z,71.33
2023-03-25T04:08:56.661Z,71.32
2023-03-25T04:11:43.649Z,71.19
2023-03-25T04:14:13.436Z,71.42
2023-03-25T04:16:43.506Z,71.50
2023-03-25T04:19:16.756Z,71.22
2023-03-25T04:21:47.392Z,71.21
2023-03-25T04:24:19.113Z,71.24
2023-03-25T04:26:47.269Z,71.16
2023-03-25T04:29:15.304Z,71.10
2023-03-25T04:31:44.954Z,71.17
2023-03-25T04:34:14.371Z,71.05
2023-03-25T04:36:46.260Z,71.02
2023-03-25T04:39:15.701Z,71.06
2023-03-25T04:41:43.698Z,70.88
2023-03-25T04:44:12.095Z,70.86
2023-03-25T04:46:40.882Z,70.83
2023-03-25T04:49:20.486Z,70.67
2023-03-25T04:51:52.346Z,70.65
2023-03-25T04:54:22.895Z,70.52
2023-03-25T04:56:51.896Z,70.34
2023-03-25T04:59:20.944Z,70.24
2023-03-25T05:01:49.304Z,70.02
2023-03-25T05:04:18.265Z,69.84
2023-03-25T05:06:50.009Z,69.71
2023-03-25T05:09:22.475Z,69.53
2023-03-25T05:11:53.153Z,69.23
2023-03-25T05:14:22.362Z,69.09
2023-03-25T05:16:50.645Z,68.86
2023-03-25T05:19:19.739Z,68.69
2023-03-25T05:21:48.165Z,68.61
2023-03-25T05:24:16.203Z,68.46
2023-03-25T05:26:44.096Z,68.48
2023-03-25T05:29:14.590Z,68.39
2023-03-25T05:31:45.406Z,68.33
2023-03-25T05:34:14.079Z,68.27
2023-03-25T05:36:42.248Z,68.25
2023-03-25T05:39:10.528Z,68.22
2023-03-25T05:41:38.381Z,68.21
2023-03-25T05:44:07.906Z,68.15
2023-03-25T05:46:35.939Z,68.11
2023-03-25T05:49:04.126Z,68.11
2023-03-25T05:51:36.026Z,68.17
2023-03-25T05:54:06.608Z,68.14
2023-03-25T05:56:36.167Z,68.13
2023-03-25T05:59:04.428Z,68.15
2023-03-25T06:01:33.679Z,68.05
2023-03-25T06:04:03.619Z,67.99
2023-03-25T06:06:33.553Z,68.02
2023-03-25T06:09:02.491Z,67.99
2023-03-25T06:11:30.790Z,68.02
2023-03-25T06:13:59.384Z,68.17
2023-03-25T06:16:30.306Z,68.31
2023-03-25T06:19:02.003Z,68.50
2023-03-25T06:21:34.000Z,68.50
2023-03-25T06:24:02.259Z,68.44
2023-03-25T06:26:30.191Z,68.53
2023-03-25T06:28:58.161Z,68.54
2023-03-25T06:31:27.147Z,68.68
2023-03-25T06:33:56.282Z,68.87
2023-03-25T06:36:25.135Z,68.95
2023-03-25T06:38:54.020Z,68.85
2023-03-25T06:41:24.806Z,68.77
2023-03-25T06:43:57.102Z,68.71
2023-03-25T06:46:42.985Z,68.66
2023-03-25T06:49:12.740Z,68.65
2023-03-25T06:51:40.592Z,68.50
2023-03-25T06:54:08.562Z,68.92
2023-03-25T06:56:36.381Z,69.24
2023-03-25T06:59:05.521Z,69.06
2023-03-25T07:01:33.442Z,67.96
2023-03-25T07:04:01.391Z,66.87
2023-03-25T07:06:29.282Z,65.47
2023-03-25T07:08:56.865Z,64.88
2023-03-25T07:11:30.796Z,63.49
2023-03-25T07:13:58.497Z,62.37
2023-03-25T07:16:27.342Z,59.59
2023-03-25T07:18:56.282Z,57.39
2023-03-25T07:21:26.883Z,55.66
2023-03-25T07:24:04.244Z,52.27
2023-03-25T07:26:41.275Z,47.37
2023-03-25T07:29:14.877Z,50.78
2023-03-25T07:31:42.841Z,49.26
2023-03-25T07:34:10.608Z,47.31
2023-03-25T07:36:38.482Z,46.56
2023-03-25T07:39:07.417Z,46.98
2023-03-25T07:41:35.120Z,47.40
2023-03-25T07:44:11.114Z,48.21
2023-03-25T07:46:40.695Z,48.33
2023-03-25T07:49:08.357Z,48.49
2023-03-25T07:51:36.058Z,48.33
2023-03-25T07:54:04.791Z,48.14
2023-03-25T07:56:33.263Z,48.09
2023-03-25T07:59:00.929Z,47.71
2023-03-25T08:01:28.530Z,48.40
2023-03-25T08:03:56.639Z,48.58
2023-03-25T08:06:24.198Z,49.10
2023-03-25T08:08:51.793Z,48.32
2023-03-25T08:11:19.454Z,48.86
2023-03-25T08:13:47.128Z,48.37
2023-03-25T08:16:15.739Z,48.20
2023-03-25T08:18:44.625Z,48.63
2023-03-25T08:21:18.660Z,48.32
2023-03-25T08:23:47.143Z,47.85
2023-03-25T08:26:15.840Z,46.71
2023-03-25T08:28:43.596Z,47.38
2023-03-25T08:31:11.727Z,45.91
2023-03-25T08:33:41.363Z,44.96
2023-03-25T08:36:12.921Z,43.94
2023-03-25T08:38:41.484Z,44.77
2023-03-25T08:41:09.029Z,44.67
2023-03-25T08:43:36.716Z,43.34
2023-03-25T08:46:04.806Z,44.25
2023-03-25T08:48:37.960Z,43.85
2023-03-25T08:51:06.439Z,44.10
2023-03-25T08:53:34.162Z,44.26
2023-03-25T08:56:01.920Z,44.16
2023-03-25T08:58:29.805Z,44.16
2023-03-25T09:00:58.076Z,43.18
2023-03-25T09:03:27.397Z,42.95
2023-03-25T09:05:55.666Z,42.85
2023-03-25T09:08:23.913Z,43.26
2023-03-25T09:10:51.814Z,43.72
2023-03-25T09:13:19.432Z,43.69
2023-03-25T09:15:47.386Z,43.85
2023-03-25T09:18:15.333Z,43.85
2023-03-25T09:20:43.086Z,43.71
2023-03-25T09:23:11.405Z,43.71
2023-03-25T09:25:39.122Z,43.79
2023-03-25T09:28:07.056Z,43.57
2023-03-25T09:30:35.155Z,43.33
2023-03-25T09:33:03.555Z,43.44
2023-03-25T09:35:31.544Z,43.89
2023-03-25T09:37:59.275Z,43.74
2023-03-25T09:40:27.333Z,43.71
2023-03-25T09:43:33.014Z,43.94
2023-03-25T09:46:01.145Z,44.46
2023-03-25T09:48:39.428Z,44.03
2023-03-25T09:51:26.800Z,43.95
2023-03-25T09:54:05.881Z,44.24
2023-03-25T09:56:42.196Z,44.99
2023-03-25T09:59:22.822Z,45.15
2023-03-25T10:02:27.630Z,44.80
2023-03-25T10:05:32.755Z,45.28
2023-03-25T10:08:12.903Z,44.84
2023-03-25T10:10:54.539Z,44.85
2023-03-25T10:13:56.461Z,44.46
2023-03-25T10:16:57.196Z,45.09
2023-03-25T10:19:33.028Z,46.19
2023-03-25T10:22:15.556Z,47.65
2023-03-25T10:24:51.786Z,49.12
2023-03-25T10:27:41.554Z,49.71
2023-03-25T10:30:17.716Z,50.95
2023-03-25T10:32:53.718Z,51.62
2023-03-25T10:35:38.036Z,52.26
2023-03-25T10:38:23.692Z,52.88
2023-03-25T10:40:54.116Z,53.48
2023-03-25T10:43:35.007Z,54.55
2023-03-25T10:46:37.139Z,55.03
2023-03-25T10:49:05.151Z,56.12
2023-03-25T10:51:36.267Z,56.78
2023-03-25T10:54:04.208Z,57.92
2023-03-25T10:56:40.180Z,58.51
2023-03-25T10:59:37.059Z,58.96
2023-03-25T11:02:15.474Z,60.25
2023-03-25T11:04:46.106Z,61.04
2023-03-25T11:07:25.761Z,61.24
2023-03-25T11:09:53.507Z,62.00
2023-03-25T11:12:33.334Z,61.99
2023-03-25T11:14:57.164Z,63.16
2023-03-25T11:17:27.061Z,62.78
2023-03-25T11:20:07.198Z,64.39
2023-03-25T11:22:38.215Z,65.17
2023-03-25T11:25:19.814Z,65.19
2023-03-25T11:28:01.484Z,66.04
2023-03-25T11:30:29.346Z,66.71
2023-03-25T11:33:12.391Z,67.21
2023-03-25T11:35:44.144Z,67.72
2023-03-25T11:38:22.941Z,68.37
2023-03-25T11:40:59.187Z,69.29
2023-03-25T11:43:32.397Z,69.37
2023-03-25T11:46:13.072Z,69.91
2023-03-25T11:48:44.106Z,69.68
2023-03-25T11:51:23.172Z,70.29
2023-03-25T11:54:04.858Z,70.02
2023-03-25T11:56:39.540Z,70.16
2023-03-25T11:59:27.202Z,70.18
2023-03-25T12:02:21.122Z,70.86
2023-03-25T12:05:16.021Z,70.83
2023-03-25T12:07:48.056Z,70.76
2023-03-25T12:10:46.367Z,71.15
2023-03-25T12:13:37.766Z,71.20
2023-03-25T12:16:30.904Z,71.61
2023-03-25T12:19:21.957Z,71.10
2023-03-25T12:22:31.919Z,71.04
2023-03-25T12:25:11.605Z,70.75
2023-03-25T12:28:04.801Z,70.70
2023-03-25T12:31:07.170Z,71.05
2023-03-25T12:33:55.169Z,71.36
2023-03-25T12:36:43.455Z,70.96
2023-03-25T12:39:53.046Z,71.49
2023-03-25T12:42:44.451Z,71.72
2023-03-25T12:45:45.417Z,71.16
2023-03-25T12:48:37.064Z,71.56
2023-03-25T12:51:21.967Z,71.40
2023-03-25T12:54:26.099Z,72.00
2023-03-25T12:57:02.011Z,71.92
2023-03-25T13:00:10.534Z,72.02
2023-03-25T13:03:12.773Z,71.77
2023-03-25T13:05:57.784Z,71.49
2023-03-25T13:08:57.918Z,71.59
2023-03-25T13:11:36.981Z,71.09
2023-03-25T13:14:13.376Z,70.92
2023-03-25T13:16:44.508Z,70.87
2023-03-25T13:19:22.795Z,70.91
2023-03-25T13:21:57.697Z,70.84
2023-03-25T13:24:39.978Z,70.81
2023-03-25T13:27:11.112Z,70.87
2023-03-25T13:29:43.695Z,70.82
2023-03-25T13:32:25.252Z,70.89
2023-03-25T13:34:58.593Z,71.05
2023-03-25T13:37:43.876Z,70.99
2023-03-25T13:40:28.408Z,71.12
2023-03-25T13:43:43.446Z,71.15
2023-03-25T13:46:19.989Z,71.04
2023-03-25T13:48:58.517Z,70.94
2023-03-25T13:51:27.065Z,70.89
2023-03-25T13:54:02.991Z,70.70
2023-03-25T13:57:01.415Z,70.37
2023-03-25T13:59:59.666Z,70.29
2023-03-25T14:02:41.002Z,69.83
2023-03-25T14:05:34.220Z,69.54
2023-03-25T14:08:30.087Z,69.59
2023-03-25T14:11:18.669Z,69.36
2023-03-25T14:14:05.090Z,69.07
2023-03-25T14:16:44.680Z,68.88
2023-03-25T14:19:17.794Z,68.79
2023-03-25T14:21:52.559Z,68.57
2023-03-25T14:24:31.453Z,68.31
2023-03-25T14:27:07.373Z,67.87
2023-03-25T14:29:43.558Z,67.65
2023-03-25T14:32:23.091Z,67.44
2023-03-25T14:34:50.809Z,67.22
2023-03-25T14:37:27.023Z,66.91
2023-03-25T14:40:00.587Z,66.88
2023-03-25T14:42:42.064Z,66.91
2023-03-25T14:45:36.414Z,66.99
2023-03-25T14:48:19.366Z,67.14
2023-03-25T14:50:42.483Z,67.26
2023-03-25T14:53:13.021Z,67.41
2023-03-25T14:55:47.759Z,67.67
2023-03-25T14:58:25.293Z,68.51
2023-03-25T15:01:00.016Z,68.98
2023-03-25T15:03:33.240Z,69.43
2023-03-25T15:06:02.176Z,69.80
2023-03-25T15:08:37.666Z,70.33
2023-03-25T15:11:12.693Z,70.38
2023-03-25T15:13:50.276Z,70.57
2023-03-25T15:16:28.975Z,70.76
2023-03-25T15:19:02.092Z,71.41
2023-03-25T15:21:54.586Z,71.68
2023-03-25T15:24:32.035Z,71.98
2023-03-25T15:27:07.948Z,72.00
2023-03-25T15:30:15.862Z,72.13
2023-03-25T15:33:19.442Z,72.63
2023-03-25T15:36:19.138Z,72.81
2023-03-25T15:39:06.907Z,72.92
2023-03-25T15:42:20.474Z,72.90
2023-03-25T15:45:00.104Z,72.92
2023-03-25T15:47:38.846Z,73.32
2023-03-25T15:50:21.620Z,73.72
2023-03-25T15:52:57.480Z,73.72
2023-03-25T15:55:42.617Z,73.99
2023-03-25T15:58:28.079Z,73.88
2023-03-25T16:01:02.062Z,74.06
2023-03-25T16:03:31.008Z,74.06
2023-03-25T16:06:03.078Z,74.08
2023-03-25T16:08:38.846Z,74.36
2023-03-25T16:11:24.742Z,73.96
2023-03-25T16:14:17.126Z,73.39
2023-03-25T16:16:56.114Z,73.09
2023-03-25T16:19:41.497Z,72.99
2023-03-25T16:22:28.759Z,72.97
2023-03-25T16:25:01.212Z,72.75
2023-03-25T16:27:36.430Z,72.55
2023-03-25T16:30:24.373Z,72.45
2023-03-25T16:32:52.707Z,72.33
2023-03-25T16:35:26.347Z,72.39
2023-03-25T16:37:58.049Z,72.13
2023-03-25T16:40:31.123Z,72.12
2023-03-25T16:43:10.201Z,72.51
2023-03-25T16:45:38.736Z,72.54
2023-03-25T16:48:11.165Z,72.56
2023-03-25T16:50:40.030Z,72.85
2023-03-25T16:53:09.892Z,73.12
2023-03-25T16:55:56.244Z,73.07
2023-03-25T16:58:27.260Z,73.36
2023-03-25T17:01:03.291Z,73.33
2023-03-25T17:03:46.979Z,73.45
2023-03-25T17:06:28.808Z,73.87
2023-03-25T17:08:59.481Z,73.83
2023-03-25T17:11:30.455Z,74.04
2023-03-25T17:14:02.559Z,74.01
2023-03-25T17:16:33.074Z,74.14
2023-03-25T17:19:02.268Z,74.25
2023-03-25T17:21:33.991Z,74.48
2023-03-25T17:24:10.084Z,74.28
2023-03-25T17:26:55.581Z,74.33
2023-03-25T17:29:25.363Z,74.64
2023-03-25T17:31:58.618Z,74.56
2023-03-25T17:34:27.319Z,74.60
2023-03-25T17:37:00.616Z,74.75
2023-03-25T17:39:31.796Z,74.59
2023-03-25T17:42:13.892Z,74.54
2023-03-25T17:44:44.870Z,74.46
2023-03-25T17:47:18.083Z,74.43
2023-03-25T17:49:46.109Z,74.45
2023-03-25T17:52:13.602Z,74.31
2023-03-25T17:54:41.400Z,74.26
2023-03-25T17:57:17.972Z,74.33
2023-03-25T17:59:46.671Z,74.32
2023-03-25T18:02:16.974Z,74.27
2023-03-25T18:04:45.015Z,74.25
2023-03-25T18:07:12.532Z,74.20
2023-03-25T18:09:40.742Z,74.24
2023-03-25T18:12:09.789Z,74.07
2023-03-25T18:14:37.636Z,74.03
2023-03-25T18:17:05.424Z,73.93
2023-03-25T18:19:33.943Z,73.85
2023-03-25T18:22:09.918Z,73.86
2023-03-25T18:24:33.363Z,73.86
2023-03-25T18:27:03.043Z,73.98
2023-03-25T18:29:31.117Z,73.94
2023-03-25T18:32:00.865Z,74.06
2023-03-25T18:34:28.587Z,74.07
2023-03-25T18:36:57.283Z,74.06
2023-03-25T18:39:27.471Z,74.03
2023-03-25T18:41:54.990Z,73.91
2023-03-25T18:44:23.212Z,73.90
2023-03-25T18:46:50.895Z,73.96
2023-03-25T18:49:19.844Z,73.98
2023-03-25T18:51:48.028Z,74.08
2023-03-25T18:54:16.161Z,74.20
2023-03-25T18:56:44.543Z,74.20
2023-03-25T18:59:18.002Z,74.24
2023-03-25T19:01:46.722Z,74.17
2023-03-25T19:04:14.386Z,74.20
2023-03-25T19:06:42.475Z,74.09
2023-03-25T19:09:16.987Z,73.96
2023-03-25T19:11:44.812Z,73.90
2023-03-25T19:14:12.522Z,74.07
2023-03-25T19:16:50.775Z,74.01
2023-03-25T19:19:13.537Z,73.93
2023-03-25T19:21:43.634Z,73.89
2023-03-25T19:24:10.964Z,73.81
2023-03-25T19:26:39.032Z,73.97
2023-03-25T19:29:08.167Z,74.16
2023-03-25T19:31:35.780Z,74.30
2023-03-25T19:34:03.786Z,74.44
2023-03-25T19:36:33.415Z,74.54
2023-03-25T19:39:09.447Z,74.71
2023-03-25T19:41:39.098Z,74.95
2023-03-25T19:44:06.704Z,75.02
2023-03-25T19:46:34.986Z,75.20
2023-03-25T19:49:02.907Z,75.31
2023-03-25T19:51:31.279Z,75.54
2023-03-25T19:53:59.177Z,75.71
2023-03-25T19:56:27.108Z,75.79
2023-03-25T19:58:55.142Z,75.89
2023-03-25T20:01:22.990Z,76.01
2023-03-25T20:03:51.054Z,76.10
2023-03-25T20:06:22.355Z,76.19
2023-03-25T20:08:52.331Z,76.24
2023-03-25T20:11:21.150Z,76.30
2023-03-25T20:13:49.561Z,76.41
2023-03-25T20:16:17.837Z,76.45
2023-03-25T20:18:46.292Z,76.57
2023-03-25T20:21:14.530Z,76.59
2023-03-25T20:23:45.490Z,76.79
2023-03-25T20:26:13.466Z,76.87
2023-03-25T20:28:41.555Z,77.03
2023-03-25T20:31:17.831Z,77.32
2023-03-25T20:33:49.506Z,77.43
2023-03-25T20:36:19.152Z,77.64
2023-03-25T20:38:56.655Z,77.81
2023-03-25T20:41:19.110Z,78.04
2023-03-25T20:43:47.039Z,78.17
2023-03-25T20:46:15.794Z,78.21
2023-03-25T20:48:43.859Z,78.38
2023-03-25T20:51:11.794Z,78.34
2023-03-25T20:53:42.867Z,78.37
2023-03-25T20:56:11.318Z,78.47
2023-03-25T20:58:39.166Z,78.58
2023-03-25T21:01:07.413Z,78.77
2023-03-25T21:03:35.346Z,78.75
2023-03-25T21:06:13.486Z,78.71
2023-03-25T21:08:33.886Z,78.74
2023-03-25T21:11:02.220Z,78.58
2023-03-25T21:13:32.201Z,78.54
2023-03-25T21:16:01.701Z,78.66
2023-03-25T21:18:29.444Z,78.73
2023-03-25T21:20:59.968Z,78.84
2023-03-25T21:23:31.446Z,79.01
2023-03-25T21:26:06.941Z,79.16
2023-03-25T21:28:36.772Z,79.66
2023-03-25T21:31:15.642Z,80.12
2023-03-25T21:33:45.594Z,79.82
2023-03-25T21:36:16.153Z,79.94
2023-03-25T21:38:44.399Z,79.97
2023-03-25T21:41:12.243Z,80.04
2023-03-25T21:43:41.709Z,80.17
2023-03-25T21:46:10.685Z,80.45
2023-03-25T21:48:39.526Z,80.50
2023-03-25T21:51:09.912Z,80.79
2023-03-25T21:53:39.552Z,80.92
2023-03-25T21:56:09.655Z,80.99
2023-03-25T21:58:39.530Z,81.13
2023-03-25T22:01:15.479Z,81.36
2023-03-25T22:03:47.230Z,81.31
2023-03-25T22:06:18.834Z,81.38
2023-03-25T22:08:46.431Z,81.69
2023-03-25T22:11:22.056Z,81.62
2023-03-25T22:13:51.337Z,81.88
2023-03-25T22:16:21.186Z,82.09
2023-03-25T22:18:49.956Z,82.13
2023-03-25T22:21:23.364Z,82.14
2023-03-25T22:23:55.013Z,82.09
2023-03-25T22:26:23.801Z,82.34
2023-03-25T22:28:58.141Z,82.38
2023-03-25T22:31:30.948Z,82.78
2023-03-25T22:34:03.920Z,83.54
2023-03-25T22:36:34.187Z,83.42
2023-03-25T22:39:02.466Z,83.65
2023-03-25T22:41:30.684Z,84.32
2023-03-25T22:43:59.359Z,83.96
2023-03-25T22:46:27.213Z,83.98
2023-03-25T22:48:55.238Z,84.08
2023-03-25T22:51:23.141Z,84.15
2023-03-25T22:53:50.910Z,84.47
2023-03-25T22:56:19.729Z,84.42
2023-03-25T22:58:47.339Z,84.39
2023-03-25T23:01:23.315Z,84.38
2023-03-25T23:03:53.002Z,84.31
2023-03-25T23:06:21.832Z,84.36
2023-03-25T23:08:51.538Z,84.32
2023-03-25T23:11:23.465Z,84.33
2023-03-25T23:13:55.744Z,84.28
2023-03-25T23:16:27.793Z,84.27
2023-03-25T23:18:56.022Z,84.16
2023-03-25T23:21:27.551Z,84.14
2023-03-25T23:23:59.013Z,84.09
2023-03-25T23:26:38.382Z,84.16
2023-03-25T23:29:10.547Z,84.21
2023-03-25T23:31:41.764Z,84.28
2023-03-25T23:34:13.960Z,84.18
2023-03-25T23:36:42.900Z,84.18
2023-03-25T23:39:17.853Z,84.08
2023-03-25T23:41:45.668Z,84.13
2023-03-25T23:44:13.367Z,84.27
2023-03-25T23:46:41.940Z,84.35
2023-03-25T23:49:10.602Z,84.33
2023-03-25T23:51:41.067Z,84.32
2023-03-25T23:54:12.902Z,84.14
2023-03-25T23:56:41.758Z,84.09
2023-03-25T23:59:11.529Z,84.13
